Time;durP1;ratioP1;P1;durP2;ratioP2;P2;SDS_P1;SDS_P2;PMS_P1;PMS_P2;Temp;Humidity;BMP_temperature;BMP_pressure;BME280_temperature;BME280_humidity;BME280_pressure;Samples;Min_cycle;Max_cycle;Signal;HPM_P1;HPM_P2
2024/01/27 00:01:19;;;;;;;;;;;;;;;6.69;78.76;99533.53;4369570;32;34348;-82
2024/01/27 00:03:47;;;;;;;;;;;;;;;6.71;78.09;99516.44;4372475;32;34804;-84
2024/01/27 00:06:14;;;;;;;;;;;;;;;6.66;78.31;99517.94;4376140;32;33703;-95
2024/01/27 00:08:41;;;;;;;;;;;;;;;6.65;78.19;99526.50;4373230;32;33039;-93
2024/01/27 00:11:10;;;;;;;;;;;;;;;6.57;78.77;99508.22;4374373;32;34312;-93
2024/01/27 00:13:37;;;;;;;;;;;;;;;6.66;78.11;99505.06;4374942;32;33505;-83
2024/01/27 00:16:05;;;;;;;;;;;;;;;6.46;78.37;99500.97;4375372;32;35148;-92
2024/01/27 00:18:32;;;;;;;;;;;;;;;6.27;78.44;99527.75;4376758;32;34513;-86
2024/01/27 00:21:00;;;;;;;;;;;;;;;6.20;78.02;99521.50;4375891;32;34383;-92
2024/01/27 00:23:27;;;;;;;;;;;;;;;6.57;75.69;99539.13;4375347;32;33323;-85
2024/01/27 00:25:54;;;;;;;;;;;;;;;6.34;73.87;99530.59;4375111;32;34732;-83
2024/01/27 00:28:22;;;;;;;;;;;;;;;6.40;73.25;99539.38;4375159;32;34279;-83
2024/01/27 00:30:49;;;;;;;;;;;;;;;6.45;72.46;99533.56;4375471;32;33643;-80
2024/01/27 00:33:16;;;;;;;;;;;;;;;6.47;70.92;99554.22;4376253;32;33118;-83
2024/01/27 00:35:44;;;;;;;;;;;;;;;6.51;70.87;99538.91;4375542;32;35133;-88
2024/01/27 00:38:14;;;;;;;;;;;;;;;6.64;69.53;99553.13;4375130;32;33918;-85
2024/01/27 00:40:42;;;;;;;;;;;;;;;6.62;68.47;99562.47;4375299;32;33979;-94
2024/01/27 00:43:09;;;;;;;;;;;;;;;6.51;68.57;99572.41;4375465;32;34149;-85
2024/01/27 00:45:36;;;;;;;;;;;;;;;6.47;69.11;99564.50;4375381;32;33785;-95
2024/01/27 00:48:04;;;;;;;;;;;;;;;6.31;69.54;99570.81;4375360;32;34473;-88
2024/01/27 00:50:31;;;;;;;;;;;;;;;6.45;69.80;99589.34;4384291;32;34369;-83
2024/01/27 00:52:58;;;;;;;;;;;;;;;6.48;69.48;99602.34;4381889;32;33740;-83
2024/01/27 00:55:26;;;;;;;;;;;;;;;6.48;69.91;99615.22;4390655;32;34244;-81
2024/01/27 00:57:53;;;;;;;;;;;;;;;6.45;70.19;99625.41;4375244;32;34466;-83
2024/01/27 01:00:21;;;;;;;;;;;;;;;6.49;69.92;99642.72;4375392;32;35483;-93
2024/01/27 01:02:48;;;;;;;;;;;;;;;6.51;69.75;99641.94;4375159;32;33095;-83
2024/01/27 01:05:16;;;;;;;;;;;;;;;6.51;69.61;99648.78;4373294;32;33975;-90
2024/01/27 01:07:43;;;;;;;;;;;;;;;6.45;70.19;99651.16;4374888;32;34301;-87
2024/01/27 01:10:10;;;;;;;;;;;;;;;6.40;70.04;99655.25;4375372;32;35059;-87
2024/01/27 01:12:37;;;;;;;;;;;;;;;6.88;68.22;99647.53;4374791;32;33351;-87
2024/01/27 01:15:05;;;;;;;;;;;;;;;6.53;69.55;99649.75;4376583;32;34035;-92
2024/01/27 01:17:32;;;;;;;;;;;;;;;6.55;70.06;99666.13;4376467;32;34458;-95
2024/01/27 01:20:00;;;;;;;;;;;;;;;6.45;69.99;99653.75;4376391;32;34476;-84
2024/01/27 01:22:27;;;;;;;;;;;;;;;6.53;69.78;99665.19;4377089;32;34204;-84
2024/01/27 01:24:54;;;;;;;;;;;;;;;6.92;68.13;99668.31;4377009;32;34995;-82
2024/01/27 01:27:22;;;;;;;;;;;;;;;6.74;68.72;99673.72;4381611;32;34383;-82
2024/01/27 01:29:49;;;;;;;;;;;;;;;6.69;69.01;99670.09;4384996;32;34065;-82
2024/01/27 01:32:16;;;;;;;;;;;;;;;6.74;68.83;99660.84;4376972;32;33294;-83
2024/01/27 01:34:45;;;;;;;;;;;;;;;6.68;68.94;99680.34;4377071;32;34206;-84
2024/01/27 01:37:13;;;;;;;;;;;;;;;6.73;68.80;99682.25;4374771;32;34487;-91
2024/01/27 01:39:40;;;;;;;;;;;;;;;6.37;69.96;99694.66;4376483;32;35054;-82
2024/01/27 01:42:08;;;;;;;;;;;;;;;6.22;69.59;99686.34;4376449;32;34158;-92
2024/01/27 01:44:35;;;;;;;;;;;;;;;6.57;67.79;99701.44;4377072;32;34846;-81
2024/01/27 01:47:03;;;;;;;;;;;;;;;6.24;68.92;99692.44;4377945;32;34542;-82
2024/01/27 01:49:30;;;;;;;;;;;;;;;6.37;68.45;99704.97;4391195;32;33728;-85
2024/01/27 01:51:58;;;;;;;;;;;;;;;6.27;68.85;99710.56;4376033;32;34049;-88
2024/01/27 01:54:27;;;;;;;;;;;;;;;6.14;67.87;99714.38;4363188;32;33923;-83
2024/01/27 01:56:55;;;;;;;;;;;;;;;6.45;66.81;99733.59;4376458;32;34066;-82
2024/01/27 01:59:23;;;;;;;;;;;;;;;5.94;67.70;99717.84;4363144;32;33907;-86
2024/01/27 02:01:50;;;;;;;;;;;;;;;6.00;67.34;99726.69;4377334;32;33112;-95
2024/01/27 02:04:18;;;;;;;;;;;;;;;6.23;65.85;99743.03;4376762;32;35225;-95
2024/01/27 02:06:45;;;;;;;;;;;;;;;6.20;66.16;99742.03;4376584;32;34457;-84
2024/01/27 02:09:13;;;;;;;;;;;;;;;6.07;65.40;99743.28;4375304;32;34332;-84
2024/01/27 02:11:40;;;;;;;;;;;;;;;6.05;64.95;99748.34;4376096;32;32777;-83
2024/01/27 02:14:08;;;;;;;;;;;;;;;6.15;64.73;99747.03;4375728;32;34724;-88
2024/01/27 02:16:35;;;;;;;;;;;;;;;6.23;64.38;99760.19;4372389;32;34261;-85
2024/01/27 02:19:06;;;;;;;;;;;;;;;6.09;64.23;99746.75;4375833;32;35088;-94
2024/01/27 02:21:34;;;;;;;;;;;;;;;6.04;64.50;99750.88;4376203;32;33163;-93
2024/01/27 02:24:01;;;;;;;;;;;;;;;6.20;62.77;99748.06;4376382;32;33941;-92
2024/01/27 02:26:28;;;;;;;;;;;;;;;6.00;64.32;99754.12;4375189;32;34223;-84
2024/01/27 02:28:56;;;;;;;;;;;;;;;5.81;63.90;99725.03;4375919;32;35017;-85
2024/01/27 02:31:23;;;;;;;;;;;;;;;5.94;63.41;99712.69;4375467;32;33328;-83
2024/01/27 02:33:50;;;;;;;;;;;;;;;5.77;64.03;99715.44;4376407;32;34015;-83
2024/01/27 02:36:18;;;;;;;;;;;;;;;5.70;64.23;99708.28;4384029;32;35019;-86
2024/01/27 02:38:45;;;;;;;;;;;;;;;5.83;63.43;99717.38;4360038;32;33746;-91
2024/01/27 02:41:12;;;;;;;;;;;;;;;5.77;63.24;99710.31;4374505;32;33316;-82
2024/01/27 02:43:40;;;;;;;;;;;;;;;6.02;62.61;99716.44;4376513;32;35104;-84
2024/01/27 02:46:09;;;;;;;;;;;;;;;5.73;63.46;99718.72;4375402;32;35117;-82
2024/01/27 02:48:36;;;;;;;;;;;;;;;5.65;63.78;99717.53;4377003;32;33381;-83
2024/01/27 02:51:04;;;;;;;;;;;;;;;5.58;63.59;99728.38;4375233;32;33970;-81
2024/01/27 02:53:31;;;;;;;;;;;;;;;5.45;64.44;99750.09;4374587;32;34101;-87
2024/01/27 02:55:58;;;;;;;;;;;;;;;5.60;64.05;99762.75;4365156;32;34438;-91
2024/01/27 02:58:26;;;;;;;;;;;;;;;5.41;64.33;99775.62;4362306;32;34459;-84
2024/01/27 03:00:53;;;;;;;;;;;;;;;5.62;64.46;99781.69;4361571;32;33124;-92
2024/01/27 03:03:21;;;;;;;;;;;;;;;5.81;63.52;99779.06;4364348;32;33862;-89
2024/01/27 03:05:48;;;;;;;;;;;;;;;6.08;63.00;99781.94;4366801;32;34133;-90
2024/01/27 03:08:16;;;;;;;;;;;;;;;5.91;63.18;99784.59;4368221;32;34003;-86
2024/01/27 03:10:43;;;;;;;;;;;;;;;5.51;64.78;99793.22;4363387;32;33842;-84
2024/01/27 03:13:10;;;;;;;;;;;;;;;5.42;65.58;99798.84;4365061;32;34091;-84
2024/01/27 03:15:38;;;;;;;;;;;;;;;5.29;65.61;99797.44;4363640;32;34543;-93
2024/01/27 03:18:05;;;;;;;;;;;;;;;5.52;64.75;99810.41;4375835;32;34025;-88
2024/01/27 03:20:33;;;;;;;;;;;;;;;5.34;65.05;99820.75;4376525;32;33747;-89
2024/01/27 03:23:00;;;;;;;;;;;;;;;5.36;65.19;99822.59;4375348;32;33926;-84
2024/01/27 03:25:27;;;;;;;;;;;;;;;5.39;65.24;99829.56;4375798;32;34460;-86
2024/01/27 03:27:55;;;;;;;;;;;;;;;5.34;65.21;99842.25;4375840;32;33879;-94
2024/01/27 03:30:22;;;;;;;;;;;;;;;5.21;65.27;99855.34;4375808;32;33857;-87
2024/01/27 03:32:50;;;;;;;;;;;;;;;5.55;64.43;99846.56;4374505;32;34838;-95
2024/01/27 03:35:17;;;;;;;;;;;;;;;5.26;65.27;99855.53;4375570;32;34029;-94
2024/01/27 03:37:45;;;;;;;;;;;;;;;5.64;64.28;99862.38;4378948;32;35236;-84
2024/01/27 03:40:12;;;;;;;;;;;;;;;5.21;65.58;99854.47;4376249;32;33802;-85
2024/01/27 03:42:40;;;;;;;;;;;;;;;5.32;65.48;99868.69;4376079;32;34120;-84
2024/01/27 03:45:08;;;;;;;;;;;;;;;5.19;65.58;99871.50;4375765;32;33864;-84
2024/01/27 03:47:36;;;;;;;;;;;;;;;5.53;65.15;99881.59;4375056;32;34110;-93
2024/01/27 03:50:03;;;;;;;;;;;;;;;5.49;64.98;99882.28;4375996;32;34666;-84
2024/01/27 03:52:30;;;;;;;;;;;;;;;5.41;65.25;99889.66;4375725;32;34218;-84
2024/01/27 03:54:58;;;;;;;;;;;;;;;5.51;65.29;99886.69;4382998;32;35303;-85
2024/01/27 03:57:25;;;;;;;;;;;;;;;5.58;64.84;99877.56;4383773;32;34295;-84
2024/01/27 03:59:52;;;;;;;;;;;;;;;5.35;66.20;99894.53;4375860;32;33443;-84
2024/01/27 04:02:20;;;;;;;;;;;;;;;5.20;66.77;99898.97;4375476;32;33743;-83
2024/01/27 04:04:47;;;;;;;;;;;;;;;5.33;66.65;99891.88;4374460;32;32811;-87
2024/01/27 04:07:15;;;;;;;;;;;;;;;5.18;67.18;99901.47;4375602;32;34228;-84
2024/01/27 04:09:42;;;;;;;;;;;;;;;5.36;66.52;99888.56;4376283;32;33450;-83
2024/01/27 04:12:10;;;;;;;;;;;;;;;5.22;67.33;99913.66;4376819;32;35039;-90
2024/01/27 04:14:37;;;;;;;;;;;;;;;4.97;68.14;99905.62;4361217;32;34211;-91
2024/01/27 04:17:04;;;;;;;;;;;;;;;4.83;68.88;99913.56;4366178;32;32819;-93
2024/01/27 04:19:32;;;;;;;;;;;;;;;4.78;68.95;99909.91;4374207;32;33255;-90
2024/01/27 04:21:59;;;;;;;;;;;;;;;5.02;68.00;99909.28;4361726;32;35618;-84
2024/01/27 04:24:27;;;;;;;;;;;;;;;4.78;68.39;99924.44;4366313;32;34694;-85
2024/01/27 04:26:55;;;;;;;;;;;;;;;4.72;67.92;99909.59;4361977;32;35019;-85
2024/01/27 04:29:22;;;;;;;;;;;;;;;4.71;67.56;99923.25;4361437;32;33419;-88
2024/01/27 04:31:49;;;;;;;;;;;;;;;4.81;66.58;99928.03;4360957;32;35107;-84
2024/01/27 04:34:17;;;;;;;;;;;;;;;4.79;66.47;99937.34;4361015;32;35315;-86
2024/01/27 04:36:44;;;;;;;;;;;;;;;4.83;66.08;99928.97;4360696;32;34811;-88
2024/01/27 04:39:13;;;;;;;;;;;;;;;4.67;66.21;99939.31;4360164;32;35092;-86
2024/01/27 04:41:42;;;;;;;;;;;;;;;4.79;65.33;99957.00;4365682;32;34213;-86
2024/01/27 04:44:10;;;;;;;;;;;;;;;5.02;64.55;99955.53;4361042;32;34966;-88
2024/01/27 04:46:37;;;;;;;;;;;;;;;5.18;64.51;99952.00;4362022;32;33971;-91
2024/01/27 04:49:04;;;;;;;;;;;;;;;5.00;64.72;99952.91;4360828;32;32668;-89
2024/01/27 04:51:32;;;;;;;;;;;;;;;4.99;64.87;99956.25;4365698;32;33753;-86
2024/01/27 04:53:59;;;;;;;;;;;;;;;4.93;65.21;99944.84;4361137;32;34332;-85
2024/01/27 04:56:27;;;;;;;;;;;;;;;4.86;65.19;99965.09;4361329;32;36181;-90
2024/01/27 04:58:54;;;;;;;;;;;;;;;4.81;65.32;99970.78;4360837;32;32000;-91
2024/01/27 05:01:21;;;;;;;;;;;;;;;4.79;65.04;99970.72;4381937;32;33515;-84
2024/01/27 05:03:49;;;;;;;;;;;;;;;4.88;64.74;99988.28;4373529;32;34348;-92
2024/01/27 05:06:17;;;;;;;;;;;;;;;5.00;64.00;99981.19;4374710;32;34001;-85
2024/01/27 05:08:45;;;;;;;;;;;;;;;4.84;64.17;99978.66;4375239;32;32995;-84
2024/01/27 05:11:12;;;;;;;;;;;;;;;4.63;64.28;99992.22;4375259;32;34879;-87
2024/01/27 05:13:39;;;;;;;;;;;;;;;4.86;63.91;99980.50;4375312;32;35174;-84
2024/01/27 05:16:07;;;;;;;;;;;;;;;4.97;63.69;99972.44;4373929;32;35092;-85
2024/01/27 05:18:35;;;;;;;;;;;;;;;4.69;63.73;99981.34;4374289;32;34133;-84
2024/01/27 05:21:02;;;;;;;;;;;;;;;4.69;63.59;99991.63;4374549;32;34983;-84
2024/01/27 05:23:30;;;;;;;;;;;;;;;4.75;63.50;99985.94;4375066;32;34265;-84
2024/01/27 05:25:57;;;;;;;;;;;;;;;4.75;63.24;99996.22;4375950;32;34161;-84
2024/01/27 05:28:24;;;;;;;;;;;;;;;4.62;62.16;99985.34;4373907;32;34214;-83
2024/01/27 05:30:51;;;;;;;;;;;;;;;4.91;61.58;99991.00;4373481;32;35200;-86
2024/01/27 05:33:19;;;;;;;;;;;;;;;4.58;61.71;100009.09;4373803;32;34760;-84
2024/01/27 05:35:46;;;;;;;;;;;;;;;4.27;62.40;99986.13;4373748;32;33978;-85
2024/01/27 05:38:13;;;;;;;;;;;;;;;4.54;60.70;99999.47;4374439;32;33009;-87
2024/01/27 05:40:41;;;;;;;;;;;;;;;4.54;60.30;99999.47;4374265;32;33463;-84
2024/01/27 05:43:08;;;;;;;;;;;;;;;4.44;61.02;99999.81;4374584;32;35195;-84
2024/01/27 05:45:35;;;;;;;;;;;;;;;4.59;59.74;100009.97;4373639;32;34520;-84
2024/01/27 05:48:03;;;;;;;;;;;;;;;4.52;59.52;100018.19;4373996;32;33455;-83
2024/01/27 05:50:32;;;;;;;;;;;;;;;4.73;58.61;100028.62;4374076;32;34073;-84
2024/01/27 05:52:59;;;;;;;;;;;;;;;4.63;58.92;100043.59;4374531;32;33996;-87
2024/01/27 05:55:26;;;;;;;;;;;;;;;4.38;59.85;100051.72;4374151;32;33387;-84
2024/01/27 05:57:56;;;;;;;;;;;;;;;4.61;59.19;100063.16;4373704;32;32940;-84
2024/01/27 06:00:23;;;;;;;;;;;;;;;4.29;60.41;100076.06;4374156;32;33836;-84
2024/01/27 06:02:51;;;;;;;;;;;;;;;4.46;60.41;100092.31;4375572;32;34742;-83
2024/01/27 06:05:19;;;;;;;;;;;;;;;4.60;59.70;100094.78;4375919;32;33847;-84
2024/01/27 06:07:47;;;;;;;;;;;;;;;4.57;60.13;100094.63;4375485;32;32882;-84
2024/01/27 06:10:15;;;;;;;;;;;;;;;4.54;60.97;100104.75;4375735;32;34333;-86
2024/01/27 06:12:42;;;;;;;;;;;;;;;4.36;60.92;100098.69;4375375;32;34183;-85
2024/01/27 06:15:10;;;;;;;;;;;;;;;4.52;61.38;100100.34;4376197;32;34850;-88
2024/01/27 06:17:38;;;;;;;;;;;;;;;4.57;61.16;100101.47;4377821;32;34249;-91
2024/01/27 06:20:06;;;;;;;;;;;;;;;4.57;61.26;100110.03;4377557;32;34817;-83
2024/01/27 06:22:33;;;;;;;;;;;;;;;4.65;61.17;100110.44;4374987;32;35459;-84
2024/01/27 06:25:01;;;;;;;;;;;;;;;4.56;61.63;100108.28;4375403;32;34883;-85
2024/01/27 06:27:28;;;;;;;;;;;;;;;4.54;62.55;100109.00;4376089;32;34061;-84
2024/01/27 06:29:55;;;;;;;;;;;;;;;4.61;62.28;100111.97;4373714;32;33815;-84
2024/01/27 06:32:23;;;;;;;;;;;;;;;4.59;62.07;100103.31;4374408;32;35418;-84
2024/01/27 06:34:50;;;;;;;;;;;;;;;4.19;63.87;100108.03;4376595;32;33625;-83
2024/01/27 06:37:17;;;;;;;;;;;;;;;4.28;64.00;100115.34;4375662;32;33111;-88
2024/01/27 06:39:49;;;;;;;;;;;;;;;4.55;63.03;100119.38;4374998;32;34292;-92
2024/01/27 06:42:16;;;;;;;;;;;;;;;4.33;63.52;100119.94;4374476;32;33630;-84
2024/01/27 06:44:43;;;;;;;;;;;;;;;4.59;62.92;100120.41;4376884;32;34343;-83
2024/01/27 06:47:11;;;;;;;;;;;;;;;4.77;61.80;100126.50;4381533;32;33140;-84
2024/01/27 06:49:38;;;;;;;;;;;;;;;4.37;63.30;100119.28;4375242;32;34079;-89
2024/01/27 06:52:06;;;;;;;;;;;;;;;4.29;63.60;100128.28;4375347;32;35847;-83
2024/01/27 06:54:33;;;;;;;;;;;;;;;4.46;62.87;100130.84;4376102;32;33888;-82
2024/01/27 06:57:00;;;;;;;;;;;;;;;4.39;63.09;100124.47;4374913;32;33469;-83
2024/01/27 06:59:28;;;;;;;;;;;;;;;4.60;62.77;100129.88;4378181;32;34020;-86
2024/01/27 07:01:55;;;;;;;;;;;;;;;4.59;62.58;100120.41;4374913;32;34523;-84
2024/01/27 07:04:23;;;;;;;;;;;;;;;4.36;63.24;100126.91;4376380;32;33437;-80
2024/01/27 07:06:50;;;;;;;;;;;;;;;4.63;62.96;100120.66;4374841;32;33509;-84
2024/01/27 07:09:19;;;;;;;;;;;;;;;4.52;63.13;100126.03;4375265;32;35082;-89
2024/01/27 07:11:46;;;;;;;;;;;;;;;4.37;63.56;100132.13;4375298;32;34094;-83
2024/01/27 07:14:13;;;;;;;;;;;;;;;4.59;62.86;100125.56;4375769;32;34531;-83
2024/01/27 07:16:43;;;;;;;;;;;;;;;4.45;63.49;100140.22;4375827;32;32977;-91
2024/01/27 07:19:11;;;;;;;;;;;;;;;4.32;63.87;100143.84;4376181;32;33983;-85
2024/01/27 07:21:38;;;;;;;;;;;;;;;4.44;64.00;100150.44;4373472;32;34242;-82
2024/01/27 07:24:06;;;;;;;;;;;;;;;4.47;64.32;100148.00;4375800;32;34422;-92
2024/01/27 07:26:33;;;;;;;;;;;;;;;4.97;62.05;100147.19;4375195;32;33995;-94
2024/01/27 07:29:00;;;;;;;;;;;;;;;4.52;63.76;100149.16;4375515;32;34154;-84
2024/01/27 07:31:28;;;;;;;;;;;;;;;4.66;63.33;100155.87;4375378;32;35259;-83
2024/01/27 07:33:55;;;;;;;;;;;;;;;4.67;62.84;100156.75;4374774;32;33993;-82
2024/01/27 07:36:23;;;;;;;;;;;;;;;4.77;62.94;100165.03;4375104;32;32919;-83
2024/01/27 07:38:51;;;;;;;;;;;;;;;4.62;63.65;100154.84;4375863;32;34344;-83
2024/01/27 07:41:18;;;;;;;;;;;;;;;4.61;63.68;100157.31;4375393;32;33945;-82
2024/01/27 07:43:45;;;;;;;;;;;;;;;4.88;62.79;100158.72;4375664;32;34819;-90
2024/01/27 07:46:13;;;;;;;;;;;;;;;4.90;63.30;100163.97;4374985;32;33375;-82
2024/01/27 07:48:41;;;;;;;;;;;;;;;4.88;63.30;100147.56;4375125;32;34178;-86
2024/01/27 07:51:09;;;;;;;;;;;;;;;4.78;63.73;100159.09;4376457;32;34032;-83
2024/01/27 07:53:37;;;;;;;;;;;;;;;4.72;63.32;100166.47;4375340;32;34789;-83
2024/01/27 07:56:05;;;;;;;;;;;;;;;4.93;62.85;100168.38;4375664;32;33471;-87
2024/01/27 07:58:34;;;;;;;;;;;;;;;5.03;62.34;100178.31;4377183;32;35050;-83
2024/01/27 08:01:03;;;;;;;;;;;;;;;5.37;61.46;100171.47;4374742;32;34425;-82
2024/01/27 08:03:31;;;;;;;;;;;;;;;5.08;62.11;100169.16;4374235;32;34247;-83
2024/01/27 08:05:59;;;;;;;;;;;;;;;5.28;61.69;100191.59;4370718;32;33346;-82
2024/01/27 08:08:26;;;;;;;;;;;;;;;5.37;61.10;100197.19;4374945;32;34113;-81
2024/01/27 08:10:53;;;;;;;;;;;;;;;5.03;62.42;100204.00;4375281;32;35291;-86
2024/01/27 08:13:21;;;;;;;;;;;;;;;5.01;61.86;100216.78;4375243;32;33683;-93
2024/01/27 08:15:48;;;;;;;;;;;;;;;5.05;62.39;100220.41;4373499;32;34438;-83
2024/01/27 08:18:15;;;;;;;;;;;;;;;5.07;61.82;100236.78;4375591;32;34250;-85
2024/01/27 08:20:43;;;;;;;;;;;;;;;5.10;62.13;100218.94;4374796;32;34364;-89
2024/01/27 08:23:10;;;;;;;;;;;;;;;5.68;60.81;100242.44;4374359;32;32744;-83
2024/01/27 08:25:39;;;;;;;;;;;;;;;5.16;61.81;100221.84;4373310;32;33287;-82
2024/01/27 08:28:06;;;;;;;;;;;;;;;5.49;60.42;100193.47;4374959;32;33797;-82
2024/01/27 08:30:33;;;;;;;;;;;;;;;4.99;61.74;100214.94;4375683;32;34965;-92
2024/01/27 08:33:01;;;;;;;;;;;;;;;5.08;62.15;100207.72;4376306;32;34919;-86
2024/01/27 08:35:28;;;;;;;;;;;;;;;5.15;61.64;100203.75;4375612;32;34236;-83
2024/01/27 08:37:56;;;;;;;;;;;;;;;5.18;61.56;100217.66;4375282;32;34102;-92
2024/01/27 08:40:23;;;;;;;;;;;;;;;5.48;60.30;100205.44;4374898;32;35303;-88
2024/01/27 08:42:51;;;;;;;;;;;;;;;5.07;61.73;100208.50;4375706;32;34250;-83
2024/01/27 08:45:19;;;;;;;;;;;;;;;5.19;60.95;100227.16;4375601;32;33387;-94
2024/01/27 08:47:46;;;;;;;;;;;;;;;5.48;60.19;100208.03;4375495;32;33460;-90
2024/01/27 08:50:14;;;;;;;;;;;;;;;5.22;60.92;100222.12;4375083;32;34942;-82
2024/01/27 08:52:42;;;;;;;;;;;;;;;5.45;59.68;100250.69;4375799;32;34835;-81
2024/01/27 08:55:09;;;;;;;;;;;;;;;5.17;59.71;100228.75;4377014;32;34312;-85
2024/01/27 08:57:36;;;;;;;;;;;;;;;5.32;59.43;100237.22;4381654;32;34295;-79
2024/01/27 09:00:04;;;;;;;;;;;;;;;5.20;59.39;100240.87;4368651;32;34156;-80
2024/01/27 09:02:33;;;;;;;;;;;;;;;5.53;59.31;100259.69;4357722;32;33008;-89
2024/01/27 09:05:00;;;;;;;;;;;;;;;5.48;58.88;100256.88;4366940;32;33121;-81
2024/01/27 09:07:28;;;;;;;;;;;;;;;5.24;58.82;100261.69;4370590;32;34091;-78
2024/01/27 09:09:56;;;;;;;;;;;;;;;5.44;57.79;100244.69;4365554;32;34264;-85
2024/01/27 09:12:23;;;;;;;;;;;;;;;5.68;57.78;100242.44;4372523;32;34317;-80
2024/01/27 09:14:50;;;;;;;;;;;;;;;5.41;58.20;100244.50;4369458;32;33774;-80
2024/01/27 09:17:19;;;;;;;;;;;;;;;5.27;58.25;100256.69;4365992;32;33503;-81
2024/01/27 09:19:46;;;;;;;;;;;;;;;5.39;58.30;100252.97;4368387;32;34190;-80
2024/01/27 09:22:13;;;;;;;;;;;;;;;5.35;57.77;100246.81;4365717;32;33778;-82
2024/01/27 09:24:41;;;;;;;;;;;;;;;5.68;56.67;100238.97;4365799;32;33017;-84
2024/01/27 09:27:08;;;;;;;;;;;;;;;5.72;56.16;100246.97;4367560;32;34092;-82
2024/01/27 09:29:35;;;;;;;;;;;;;;;5.69;56.93;100251.94;4367241;32;34577;-80
2024/01/27 09:32:03;;;;;;;;;;;;;;;5.56;56.71;100250.44;4365384;32;33862;-85
2024/01/27 09:34:30;;;;;;;;;;;;;;;5.56;57.03;100257.28;4368706;32;33680;-84
2024/01/27 09:36:58;;;;;;;;;;;;;;;5.76;56.45;100248.88;4367152;32;34195;-79
2024/01/27 09:39:26;;;;;;;;;;;;;;;5.54;56.20;100239.19;4368597;32;34426;-80
2024/01/27 09:41:54;;;;;;;;;;;;;;;5.65;56.19;100272.31;4366904;32;34221;-80
2024/01/27 09:44:21;;;;;;;;;;;;;;;5.98;54.61;100247.34;4373441;32;33270;-89
2024/01/27 09:46:48;;;;;;;;;;;;;;;5.59;55.21;100242.00;4371290;32;34367;-85
2024/01/27 09:49:16;;;;;;;;;;;;;;;5.52;56.17;100232.19;4382892;32;35234;-79
2024/01/27 09:51:43;;;;;;;;;;;;;;;5.68;55.66;100244.13;4381443;32;34290;-81
2024/01/27 09:54:11;;;;;;;;;;;;;;;5.79;55.75;100254.13;4378155;32;34258;-92
2024/01/27 09:56:39;;;;;;;;;;;;;;;5.88;54.50;100281.16;4383300;32;33757;-88
2024/01/27 09:59:06;;;;;;;;;;;;;;;5.83;55.16;100273.19;4391861;32;34227;-89
2024/01/27 10:01:34;;;;;;;;;;;;;;;6.16;54.26;100271.41;4370451;32;34032;-80
2024/01/27 10:04:01;;;;;;;;;;;;;;;6.34;53.42;100289.44;4374806;32;31668;-83
2024/01/27 10:06:28;;;;;;;;;;;;;;;6.25;53.50;100277.03;4374731;32;33762;-85
2024/01/27 10:08:56;;;;;;;;;;;;;;;6.29;52.17;100289.22;4382096;32;35125;-81
2024/01/27 10:11:24;;;;;;;;;;;;;;;6.15;53.20;100263.63;4375481;32;34058;-84
2024/01/27 10:13:55;;;;;;;;;;;;;;;6.43;51.78;100250.34;4372109;32;32993;-81
2024/01/27 10:16:27;;;;;;;;;;;;;;;6.28;52.05;100250.50;4364081;32;34239;-82
2024/01/27 10:19:03;;;;;;;;;;;;;;;6.25;51.72;100256.41;4381868;32;35068;-81
2024/01/27 10:21:31;;;;;;;;;;;;;;;6.26;51.24;100268.47;4373512;32;34963;-81
2024/01/27 10:23:59;;;;;;;;;;;;;;;6.16;51.43;100261.09;4375670;32;33177;-81
2024/01/27 10:26:30;;;;;;;;;;;;;;;6.24;52.46;100248.59;4359904;32;34016;-88
2024/01/27 10:28:57;;;;;;;;;;;;;;;6.18;52.52;100266.34;4361375;32;34106;-88
2024/01/27 10:31:28;;;;;;;;;;;;;;;6.33;51.31;100265.38;4366510;32;33266;-88
2024/01/27 10:33:56;;;;;;;;;;;;;;;6.65;49.69;100252.22;4361729;32;34234;-86
2024/01/27 10:36:24;;;;;;;;;;;;;;;6.48;50.82;100266.91;4361391;32;34855;-85
2024/01/27 10:38:51;;;;;;;;;;;;;;;6.16;50.94;100255.97;4366172;32;32814;-85
2024/01/27 10:41:23;;;;;;;;;;;;;;;6.34;50.69;100274.00;4361188;32;34574;-86
2024/01/27 10:43:52;;;;;;;;;;;;;;;6.32;50.21;100267.87;4357256;32;34305;-83
2024/01/27 10:46:22;;;;;;;;;;;;;;;6.60;49.91;100259.75;4369991;32;34749;-89
2024/01/27 10:48:51;;;;;;;;;;;;;;;6.44;50.73;100285.59;4353434;32;34213;-88
2024/01/27 10:51:32;;;;;;;;;;;;;;;6.33;51.83;100265.38;4362917;32;34241;-89
2024/01/27 10:54:01;;;;;;;;;;;;;;;6.54;51.33;100256.88;4360714;32;33905;-84
2024/01/27 10:56:32;;;;;;;;;;;;;;;6.50;52.17;100279.03;4359141;32;34980;-82
2024/01/27 10:58:59;;;;;;;;;;;;;;;6.64;48.93;100277.13;4361759;32;32869;-94
2024/01/27 11:01:26;;;;;;;;;;;;;;;6.55;49.56;100275.00;4360229;32;33340;-87
2024/01/27 11:03:54;;;;;;;;;;;;;;;6.53;49.47;100278.31;4358823;32;33392;-88
2024/01/27 11:06:22;;;;;;;;;;;;;;;6.41;50.26;100293.19;4360127;32;33846;-85
2024/01/27 11:08:50;;;;;;;;;;;;;;;6.77;49.76;100275.97;4355853;32;33990;-92
2024/01/27 11:11:17;;;;;;;;;;;;;;;6.83;50.10;100259.09;4363954;32;32747;-93
2024/01/27 11:13:45;;;;;;;;;;;;;;;7.04;49.53;100278.91;4358832;32;33030;-83
2024/01/27 11:16:17;;;;;;;;;;;;;;;6.74;50.11;100274.16;4357194;32;33939;-87
2024/01/27 11:18:45;;;;;;;;;;;;;;;7.23;47.88;100267.69;4363244;32;33989;-84
2024/01/27 11:21:13;;;;;;;;;;;;;;;6.71;49.04;100270.56;4360881;32;34982;-85
2024/01/27 11:23:40;;;;;;;;;;;;;;;6.72;49.46;100270.63;4360951;32;33397;-86
2024/01/27 11:26:08;;;;;;;;;;;;;;;6.61;50.38;100258.94;4362834;32;34960;-85
2024/01/27 11:28:36;;;;;;;;;;;;;;;6.67;49.43;100246.34;4371907;32;34236;-84
2024/01/27 11:31:04;;;;;;;;;;;;;;;6.55;50.32;100250.91;4379146;32;34085;-91
2024/01/27 11:33:31;;;;;;;;;;;;;;;6.99;48.47;100244.31;4377524;32;33687;-91
2024/01/27 11:36:05;;;;;;;;;;;;;;;6.74;49.80;100242.31;4386427;32;34125;-85
2024/01/27 11:38:33;;;;;;;;;;;;;;;6.80;48.90;100237.44;4375082;32;34306;-94
2024/01/27 11:41:00;;;;;;;;;;;;;;;6.63;48.92;100239.28;4375392;32;34172;-84
2024/01/27 11:43:27;;;;;;;;;;;;;;;6.89;49.20;100231.81;4375609;32;34138;-84
2024/01/27 11:45:58;;;;;;;;;;;;;;;7.09;48.94;100227.56;4382520;32;34341;-84
2024/01/27 11:48:25;;;;;;;;;;;;;;;7.01;50.44;100232.38;4376403;32;33829;-89
2024/01/27 11:51:06;;;;;;;;;;;;;;;6.98;49.87;100230.53;4376016;32;33597;-88
2024/01/27 11:53:34;;;;;;;;;;;;;;;7.02;50.86;100232.44;4351823;32;31249;-85
2024/01/27 11:56:01;;;;;;;;;;;;;;;6.81;49.12;100239.22;4373401;32;33691;-82
2024/01/27 11:58:30;;;;;;;;;;;;;;;6.70;50.00;100233.56;4383275;32;34451;-85
2024/01/27 12:00:58;;;;;;;;;;;;;;;6.68;49.78;100231.75;4390996;32;34937;-88
2024/01/27 12:03:29;;;;;;;;;;;;;;;6.70;49.66;100230.13;4365873;32;33609;-87
2024/01/27 12:05:57;;;;;;;;;;;;;;;6.91;50.32;100227.63;4375713;32;34886;-85
2024/01/27 12:08:25;;;;;;;;;;;;;;;6.93;49.79;100255.25;4381660;32;34542;-81
2024/01/27 12:10:52;;;;;;;;;;;;;;;6.86;50.63;100232.59;4375261;32;34052;-88
2024/01/27 12:13:20;;;;;;;;;;;;;;;6.83;49.85;100204.97;4370093;32;32901;-86
2024/01/27 12:15:47;;;;;;;;;;;;;;;6.96;48.75;100233.84;4374989;32;34258;-93
2024/01/27 12:18:15;;;;;;;;;;;;;;;6.94;48.78;100233.81;4375220;32;35229;-91
2024/01/27 12:20:48;;;;;;;;;;;;;;;7.24;48.86;100226.53;4379635;32;34570;-86
2024/01/27 12:23:15;;;;;;;;;;;;;;;7.14;49.02;100250.13;4376904;32;34328;-85
2024/01/27 12:25:42;;;;;;;;;;;;;;;7.25;49.64;100259.22;4375632;32;35139;-89
2024/01/27 12:28:10;;;;;;;;;;;;;;;6.87;50.58;100259.25;4375820;32;35290;-91
2024/01/27 12:30:37;;;;;;;;;;;;;;;6.85;50.70;100261.72;4373853;32;34730;-91
2024/01/27 12:33:12;;;;;;;;;;;;;;;6.92;50.75;100263.78;4374760;32;32926;-90
2024/01/27 12:35:39;;;;;;;;;;;;;;;6.88;49.86;100263.56;4375851;32;34304;-89
2024/01/27 12:38:06;;;;;;;;;;;;;;;6.68;49.91;100271.28;4376629;32;35332;-94
2024/01/27 12:40:34;;;;;;;;;;;;;;;6.68;49.82;100257.53;4375027;32;34550;-85
2024/01/27 12:43:01;;;;;;;;;;;;;;;6.80;49.76;100247.75;4375868;32;33929;-83
2024/01/27 12:45:28;;;;;;;;;;;;;;;6.64;50.53;100241.03;4377444;32;33648;-90
2024/01/27 12:47:57;;;;;;;;;;;;;;;6.40;50.49;100245.03;4380324;32;34472;-84
2024/01/27 12:50:25;;;;;;;;;;;;;;;6.52;49.78;100232.75;4374658;32;35140;-87
2024/01/27 12:52:52;;;;;;;;;;;;;;;6.26;49.70;100271.06;4368075;32;32968;-85